sensor_id;sensor_type;location;lat;lon;timestamp;P1;durP1;ratioP1;P2;durP2;ratioP2
34302;SDS011;20785;50.020;19.916;2023-03-14T00:04:28;4.40;;;1.30;;
34302;SDS011;20785;50.020;19.916;2023-03-14T00:11:16;3.00;;;1.10;;
34302;SDS011;20785;50.020;19.916;2023-03-14T00:17:21;2.50;;;1.20;;
34302;SDS011;20785;50.020;19.916;2023-03-14T00:23:26;2.30;;;1.10;;
34302;SDS011;20785;50.020;19.916;2023-03-14T00:29:33;2.80;;;1.40;;
34302;SDS011;20785;50.020;19.916;2023-03-14T00:35:40;3.30;;;1.30;;
34302;SDS011;20785;50.020;19.916;2023-03-14T00:42:23;3.30;;;1.60;;
34302;SDS011;20785;50.020;19.916;2023-03-14T00:48:27;2.70;;;1.20;;
34302;SDS011;20785;50.020;19.916;2023-03-14T00:54:33;2.50;;;1.20;;
34302;SDS011;20785;50.020;19.916;2023-03-14T01:00:39;3.90;;;1.30;;
34302;SDS011;20785;50.020;19.916;2023-03-14T01:06:43;3.20;;;1.30;;
34302;SDS011;20785;50.020;19.916;2023-03-14T01:12:51;2.20;;;1.20;;
34302;SDS011;20785;50.020;19.916;2023-03-14T01:19:01;4.20;;;1.30;;
34302;SDS011;20785;50.020;19.916;2023-03-14T01:25:53;2.70;;;1.10;;
34302;SDS011;20785;50.020;19.916;2023-03-14T01:31:57;3.30;;;1.20;;
34302;SDS011;20785;50.020;19.916;2023-03-14T01:38:00;2.00;;;1.10;;
34302;SDS011;20785;50.020;19.916;2023-03-14T01:44:08;1.90;;;1.20;;
34302;SDS011;20785;50.020;19.916;2023-03-14T01:50:16;3.00;;;1.30;;
34302;SDS011;20785;50.020;19.916;2023-03-14T01:56:24;3.50;;;1.50;;
34302;SDS011;20785;50.020;19.916;2023-03-14T02:02:29;2.90;;;1.60;;
34302;SDS011;20785;50.020;19.916;2023-03-14T02:08:34;3.10;;;1.50;;
34302;SDS011;20785;50.020;19.916;2023-03-14T02:14:43;3.40;;;1.50;;
34302;SDS011;20785;50.020;19.916;2023-03-14T02:27:20;3.20;;;1.60;;
34302;SDS011;20785;50.020;19.916;2023-03-14T02:33:24;3.10;;;1.70;;
34302;SDS011;20785;50.020;19.916;2023-03-14T02:39:29;3.80;;;1.70;;
34302;SDS011;20785;50.020;19.916;2023-03-14T02:45:46;2.90;;;1.40;;
34302;SDS011;20785;50.020;19.916;2023-03-14T02:51:52;4.30;;;1.40;;
34302;SDS011;20785;50.020;19.916;2023-03-14T02:57:55;4.00;;;2.30;;
34302;SDS011;20785;50.020;19.916;2023-03-14T03:03:58;5.10;;;1.40;;
34302;SDS011;20785;50.020;19.916;2023-03-14T03:10:01;3.30;;;1.50;;
34302;SDS011;20785;50.020;19.916;2023-03-14T03:16:05;2.80;;;1.30;;
34302;SDS011;20785;50.020;19.916;2023-03-14T03:22:10;3.90;;;1.60;;
34302;SDS011;20785;50.020;19.916;2023-03-14T03:28:15;3.20;;;1.40;;
34302;SDS011;20785;50.020;19.916;2023-03-14T03:34:19;3.10;;;1.70;;
34302;SDS011;20785;50.020;19.916;2023-03-14T03:40:25;5.60;;;1.60;;
34302;SDS011;20785;50.020;19.916;2023-03-14T03:46:30;3.00;;;1.50;;
34302;SDS011;20785;50.020;19.916;2023-03-14T03:52:33;3.00;;;1.40;;
34302;SDS011;20785;50.020;19.916;2023-03-14T03:58:36;3.40;;;1.80;;
34302;SDS011;20785;50.020;19.916;2023-03-14T04:04:50;3.30;;;1.90;;
34302;SDS011;20785;50.020;19.916;2023-03-14T04:12:13;2.50;;;1.50;;
34302;SDS011;20785;50.020;19.916;2023-03-14T04:19:20;5.00;;;1.40;;
34302;SDS011;20785;50.020;19.916;2023-03-14T04:25:24;2.90;;;1.30;;
34302;SDS011;20785;50.020;19.916;2023-03-14T04:37:35;2.90;;;1.50;;
34302;SDS011;20785;50.020;19.916;2023-03-14T04:43:43;2.50;;;1.70;;
34302;SDS011;20785;50.020;19.916;2023-03-14T04:49:48;3.20;;;1.50;;
34302;SDS011;20785;50.020;19.916;2023-03-14T04:55:53;2.70;;;1.30;;
34302;SDS011;20785;50.020;19.916;2023-03-14T05:01:59;2.90;;;1.80;;
34302;SDS011;20785;50.020;19.916;2023-03-14T05:08:25;3.60;;;1.70;;
34302;SDS011;20785;50.020;19.916;2023-03-14T05:14:51;2.90;;;1.60;;
34302;SDS011;20785;50.020;19.916;2023-03-14T05:21:08;4.20;;;1.70;;
34302;SDS011;20785;50.020;19.916;2023-03-14T05:27:46;6.80;;;2.10;;
34302;SDS011;20785;50.020;19.916;2023-03-14T05:34:08;6.00;;;2.40;;
34302;SDS011;20785;50.020;19.916;2023-03-14T05:40:19;5.60;;;1.80;;
34302;SDS011;20785;50.020;19.916;2023-03-14T05:46:35;4.70;;;1.70;;
34302;SDS011;20785;50.020;19.916;2023-03-14T05:52:50;5.10;;;1.90;;
34302;SDS011;20785;50.020;19.916;2023-03-14T05:58:59;5.60;;;2.10;;
34302;SDS011;20785;50.020;19.916;2023-03-14T06:05:14;3.60;;;2.20;;
34302;SDS011;20785;50.020;19.916;2023-03-14T06:11:20;7.00;;;2.40;;
34302;SDS011;20785;50.020;19.916;2023-03-14T06:17:23;5.60;;;2.10;;
34302;SDS011;20785;50.020;19.916;2023-03-14T06:23:31;7.20;;;2.00;;
34302;SDS011;20785;50.020;19.916;2023-03-14T06:29:34;7.20;;;2.50;;
34302;SDS011;20785;50.020;19.916;2023-03-14T06:35:38;6.30;;;2.70;;
34302;SDS011;20785;50.020;19.916;2023-03-14T06:42:04;6.10;;;2.40;;
34302;SDS011;20785;50.020;19.916;2023-03-14T06:48:07;8.70;;;2.80;;
34302;SDS011;20785;50.020;19.916;2023-03-14T07:00:17;6.70;;;2.50;;
34302;SDS011;20785;50.020;19.916;2023-03-14T07:06:21;5.80;;;2.40;;
34302;SDS011;20785;50.020;19.916;2023-03-14T07:12:24;6.30;;;2.50;;
34302;SDS011;20785;50.020;19.916;2023-03-14T07:18:27;7.60;;;2.70;;
34302;SDS011;20785;50.020;19.916;2023-03-14T07:24:30;4.00;;;1.80;;
34302;SDS011;20785;50.020;19.916;2023-03-14T07:30:35;4.70;;;1.90;;
34302;SDS011;20785;50.020;19.916;2023-03-14T07:36:40;7.10;;;2.00;;
34302;SDS011;20785;50.020;19.916;2023-03-14T07:42:43;4.40;;;1.70;;
34302;SDS011;20785;50.020;19.916;2023-03-14T07:48:51;3.60;;;1.60;;
34302;SDS011;20785;50.020;19.916;2023-03-14T07:54:57;5.00;;;2.50;;
34302;SDS011;20785;50.020;19.916;2023-03-14T08:01:01;4.90;;;1.90;;
34302;SDS011;20785;50.020;19.916;2023-03-14T08:07:04;5.70;;;2.50;;
34302;SDS011;20785;50.020;19.916;2023-03-14T08:13:07;6.40;;;2.00;;
34302;SDS011;20785;50.020;19.916;2023-03-14T08:19:10;9.20;;;2.50;;
34302;SDS011;20785;50.020;19.916;2023-03-14T08:25:13;5.30;;;2.30;;
34302;SDS011;20785;50.020;19.916;2023-03-14T08:31:16;5.60;;;1.80;;
34302;SDS011;20785;50.020;19.916;2023-03-14T08:37:20;3.40;;;1.70;;
34302;SDS011;20785;50.020;19.916;2023-03-14T08:43:29;6.20;;;2.10;;
34302;SDS011;20785;50.020;19.916;2023-03-14T08:49:32;5.30;;;2.20;;
34302;SDS011;20785;50.020;19.916;2023-03-14T08:55:35;4.00;;;2.00;;
34302;SDS011;20785;50.020;19.916;2023-03-14T09:01:38;4.60;;;2.20;;
34302;SDS011;20785;50.020;19.916;2023-03-14T09:07:41;7.60;;;2.00;;
34302;SDS011;20785;50.020;19.916;2023-03-14T09:13:44;6.20;;;2.30;;
34302;SDS011;20785;50.020;19.916;2023-03-14T09:19:47;3.40;;;2.00;;
34302;SDS011;20785;50.020;19.916;2023-03-14T09:25:54;5.30;;;2.10;;
34302;SDS011;20785;50.020;19.916;2023-03-14T09:32:00;5.10;;;2.00;;
34302;SDS011;20785;50.020;19.916;2023-03-14T09:38:03;3.40;;;2.00;;
34302;SDS011;20785;50.020;19.916;2023-03-14T09:44:12;4.30;;;2.00;;
34302;SDS011;20785;50.020;19.916;2023-03-14T09:50:17;5.30;;;2.00;;
34302;SDS011;20785;50.020;19.916;2023-03-14T09:56:21;4.60;;;2.20;;
34302;SDS011;20785;50.020;19.916;2023-03-14T10:02:34;5.90;;;2.60;;
34302;SDS011;20785;50.020;19.916;2023-03-14T10:08:39;3.40;;;1.80;;
34302;SDS011;20785;50.020;19.916;2023-03-14T10:14:50;5.80;;;2.40;;
34302;SDS011;20785;50.020;19.916;2023-03-14T10:21:06;3.00;;;2.10;;
34302;SDS011;20785;50.020;19.916;2023-03-14T10:27:22;3.80;;;2.40;;
34302;SDS011;20785;50.020;19.916;2023-03-14T10:33:35;3.50;;;2.30;;
34302;SDS011;20785;50.020;19.916;2023-03-14T10:39:46;3.50;;;2.10;;
34302;SDS011;20785;50.020;19.916;2023-03-14T10:45:51;3.30;;;2.00;;
34302;SDS011;20785;50.020;19.916;2023-03-14T10:52:12;3.60;;;1.90;;
34302;SDS011;20785;50.020;19.916;2023-03-14T10:58:26;2.10;;;1.80;;
34302;SDS011;20785;50.020;19.916;2023-03-14T11:11:07;5.10;;;1.90;;
34302;SDS011;20785;50.020;19.916;2023-03-14T11:17:37;3.80;;;2.00;;
34302;SDS011;20785;50.020;19.916;2023-03-14T11:30:51;3.80;;;1.90;;
34302;SDS011;20785;50.020;19.916;2023-03-14T11:36:59;4.20;;;1.80;;
34302;SDS011;20785;50.020;19.916;2023-03-14T11:55:46;4.00;;;1.70;;
34302;SDS011;20785;50.020;19.916;2023-03-14T12:14:30;3.90;;;1.90;;
34302;SDS011;20785;50.020;19.916;2023-03-14T12:20:36;4.60;;;2.10;;
34302;SDS011;20785;50.020;19.916;2023-03-14T12:26:48;3.40;;;1.60;;
34302;SDS011;20785;50.020;19.916;2023-03-14T12:33:12;4.40;;;2.10;;
34302;SDS011;20785;50.020;19.916;2023-03-14T12:46:06;2.90;;;1.80;;
34302;SDS011;20785;50.020;19.916;2023-03-14T12:52:16;3.70;;;2.00;;
34302;SDS011;20785;50.020;19.916;2023-03-14T13:10:42;4.40;;;1.80;;
34302;SDS011;20785;50.020;19.916;2023-03-14T13:22:52;3.90;;;1.80;;
34302;SDS011;20785;50.020;19.916;2023-03-14T13:28:55;3.40;;;2.10;;
34302;SDS011;20785;50.020;19.916;2023-03-14T13:35:00;5.20;;;1.70;;
34302;SDS011;20785;50.020;19.916;2023-03-14T13:41:04;3.10;;;1.80;;
34302;SDS011;20785;50.020;19.916;2023-03-14T13:47:17;3.60;;;1.90;;
34302;SDS011;20785;50.020;19.916;2023-03-14T13:53:21;3.30;;;2.10;;
34302;SDS011;20785;50.020;19.916;2023-03-14T13:59:26;3.80;;;2.00;;
34302;SDS011;20785;50.020;19.916;2023-03-14T14:05:31;4.00;;;2.10;;
34302;SDS011;20785;50.020;19.916;2023-03-14T14:17:53;3.90;;;2.20;;
34302;SDS011;20785;50.020;19.916;2023-03-14T14:36:28;5.20;;;2.50;;
34302;SDS011;20785;50.020;19.916;2023-03-14T14:42:42;4.30;;;2.00;;
34302;SDS011;20785;50.020;19.916;2023-03-14T14:48:45;4.30;;;2.20;;
34302;SDS011;20785;50.020;19.916;2023-03-14T14:54:52;6.20;;;2.50;;
34302;SDS011;20785;50.020;19.916;2023-03-14T15:07:21;6.50;;;3.10;;
34302;SDS011;20785;50.020;19.916;2023-03-14T15:13:23;6.50;;;3.10;;
34302;SDS011;20785;50.020;19.916;2023-03-14T15:19:27;7.30;;;3.10;;
34302;SDS011;20785;50.020;19.916;2023-03-14T15:25:32;5.20;;;2.60;;
34302;SDS011;20785;50.020;19.916;2023-03-14T15:31:55;5.70;;;2.40;;
34302;SDS011;20785;50.020;19.916;2023-03-14T15:37:59;6.60;;;3.00;;
34302;SDS011;20785;50.020;19.916;2023-03-14T15:44:02;7.00;;;3.00;;
34302;SDS011;20785;50.020;19.916;2023-03-14T15:50:08;6.10;;;3.10;;
34302;SDS011;20785;50.020;19.916;2023-03-14T15:56:15;5.50;;;3.10;;
34302;SDS011;20785;50.020;19.916;2023-03-14T16:02:20;6.70;;;3.10;;
34302;SDS011;20785;50.020;19.916;2023-03-14T16:08:23;5.80;;;3.00;;
34302;SDS011;20785;50.020;19.916;2023-03-14T16:14:28;4.60;;;2.70;;
34302;SDS011;20785;50.020;19.916;2023-03-14T16:20:31;5.40;;;2.60;;
34302;SDS011;20785;50.020;19.916;2023-03-14T16:26:49;5.00;;;2.80;;
34302;SDS011;20785;50.020;19.916;2023-03-14T16:32:52;4.90;;;2.90;;
34302;SDS011;20785;50.020;19.916;2023-03-14T16:38:55;4.70;;;2.50;;
34302;SDS011;20785;50.020;19.916;2023-03-14T16:45:02;4.60;;;2.60;;
34302;SDS011;20785;50.020;19.916;2023-03-14T16:51:14;5.20;;;2.70;;
34302;SDS011;20785;50.020;19.916;2023-03-14T16:57:18;5.10;;;2.50;;
34302;SDS011;20785;50.020;19.916;2023-03-14T17:03:22;6.00;;;3.40;;
34302;SDS011;20785;50.020;19.916;2023-03-14T17:09:25;8.20;;;3.50;;
34302;SDS011;20785;50.020;19.916;2023-03-14T17:15:30;6.90;;;4.80;;
34302;SDS011;20785;50.020;19.916;2023-03-14T17:21:33;7.60;;;4.30;;
34302;SDS011;20785;50.020;19.916;2023-03-14T17:27:36;9.10;;;4.70;;
34302;SDS011;20785;50.020;19.916;2023-03-14T17:40:12;11.80;;;5.50;;
34302;SDS011;20785;50.020;19.916;2023-03-14T17:46:15;11.20;;;6.60;;
34302;SDS011;20785;50.020;19.916;2023-03-14T17:52:19;9.20;;;5.60;;
34302;SDS011;20785;50.020;19.916;2023-03-14T17:58:22;8.10;;;5.20;;
34302;SDS011;20785;50.020;19.916;2023-03-14T18:04:25;7.80;;;4.80;;
34302;SDS011;20785;50.020;19.916;2023-03-14T18:10:29;8.20;;;5.20;;
34302;SDS011;20785;50.020;19.916;2023-03-14T18:16:33;9.00;;;4.90;;
34302;SDS011;20785;50.020;19.916;2023-03-14T18:22:40;9.50;;;5.40;;
34302;SDS011;20785;50.020;19.916;2023-03-14T18:28:44;9.30;;;5.70;;
34302;SDS011;20785;50.020;19.916;2023-03-14T18:34:49;10.10;;;6.00;;
34302;SDS011;20785;50.020;19.916;2023-03-14T18:41:06;12.30;;;6.30;;
34302;SDS011;20785;50.020;19.916;2023-03-14T18:47:09;8.80;;;5.70;;
34302;SDS011;20785;50.020;19.916;2023-03-14T18:53:12;10.60;;;6.10;;
34302;SDS011;20785;50.020;19.916;2023-03-14T18:59:15;11.70;;;6.30;;
34302;SDS011;20785;50.020;19.916;2023-03-14T19:05:19;12.10;;;6.50;;
34302;SDS011;20785;50.020;19.916;2023-03-14T19:11:24;10.20;;;6.40;;
34302;SDS011;20785;50.020;19.916;2023-03-14T19:49:54;13.70;;;7.60;;
34302;SDS011;20785;50.020;19.916;2023-03-14T19:55:58;15.60;;;8.20;;
34302;SDS011;20785;50.020;19.916;2023-03-14T20:02:03;11.10;;;6.30;;
34302;SDS011;20785;50.020;19.916;2023-03-14T20:08:05;10.50;;;6.30;;
34302;SDS011;20785;50.020;19.916;2023-03-14T20:14:08;12.60;;;7.00;;
34302;SDS011;20785;50.020;19.916;2023-03-14T20:20:15;12.30;;;6.00;;
34302;SDS011;20785;50.020;19.916;2023-03-14T20:26:19;10.80;;;5.80;;
34302;SDS011;20785;50.020;19.916;2023-03-14T20:32:21;9.60;;;5.60;;
34302;SDS011;20785;50.020;19.916;2023-03-14T20:38:26;9.50;;;5.10;;
34302;SDS011;20785;50.020;19.916;2023-03-14T20:44:37;8.60;;;5.30;;
34302;SDS011;20785;50.020;19.916;2023-03-14T20:50:40;10.00;;;5.00;;
34302;SDS011;20785;50.020;19.916;2023-03-14T20:56:42;10.10;;;5.40;;
34302;SDS011;20785;50.020;19.916;2023-03-14T21:02:46;7.70;;;4.70;;
34302;SDS011;20785;50.020;19.916;2023-03-14T21:08:48;6.10;;;3.00;;
34302;SDS011;20785;50.020;19.916;2023-03-14T21:14:53;3.80;;;1.90;;
34302;SDS011;20785;50.020;19.916;2023-03-14T21:21:04;4.00;;;1.80;;
34302;SDS011;20785;50.020;19.916;2023-03-14T21:27:06;3.50;;;1.60;;
34302;SDS011;20785;50.020;19.916;2023-03-14T21:33:13;2.60;;;1.40;;
34302;SDS011;20785;50.020;19.916;2023-03-14T21:39:40;2.90;;;1.50;;
34302;SDS011;20785;50.020;19.916;2023-03-14T21:45:46;2.60;;;1.40;;
34302;SDS011;20785;50.020;19.916;2023-03-14T21:51:48;3.00;;;1.60;;
34302;SDS011;20785;50.020;19.916;2023-03-14T21:57:53;2.60;;;1.40;;
34302;SDS011;20785;50.020;19.916;2023-03-14T22:03:55;3.10;;;1.50;;
34302;SDS011;20785;50.020;19.916;2023-03-14T22:09:58;2.80;;;1.40;;
34302;SDS011;20785;50.020;19.916;2023-03-14T22:16:03;4.20;;;1.50;;
34302;SDS011;20785;50.020;19.916;2023-03-14T22:22:08;3.00;;;1.80;;
34302;SDS011;20785;50.020;19.916;2023-03-14T22:28:11;3.60;;;1.40;;
34302;SDS011;20785;50.020;19.916;2023-03-14T22:34:13;2.50;;;1.40;;
34302;SDS011;20785;50.020;19.916;2023-03-14T22:40:16;2.30;;;1.30;;
34302;SDS011;20785;50.020;19.916;2023-03-14T22:46:24;3.30;;;1.10;;
34302;SDS011;20785;50.020;19.916;2023-03-14T22:52:28;2.40;;;1.30;;
34302;SDS011;20785;50.020;19.916;2023-03-14T23:04:35;2.50;;;1.30;;
34302;SDS011;20785;50.020;19.916;2023-03-14T23:10:37;1.80;;;1.00;;
34302;SDS011;20785;50.020;19.916;2023-03-14T23:16:38;3.00;;;1.00;;
34302;SDS011;20785;50.020;19.916;2023-03-14T23:22:42;2.80;;;1.30;;
34302;SDS011;20785;50.020;19.916;2023-03-14T23:28:44;4.00;;;1.40;;
34302;SDS011;20785;50.020;19.916;2023-03-14T23:34:45;3.00;;;1.40;;
34302;SDS011;20785;50.020;19.916;2023-03-14T23:40:47;2.80;;;1.70;;
34302;SDS011;20785;50.020;19.916;2023-03-14T23:46:52;3.50;;;2.30;;
34302;SDS011;20785;50.020;19.916;2023-03-14T23:52:56;5.40;;;4.10;;
34302;SDS011;20785;50.020;19.916;2023-03-14T23:58:58;6.00;;;3.30;;
